Time;durP1;ratioP1;P1;durP2;ratioP2;P2;SDS_P1;SDS_P2;PMS_P1;PMS_P2;Temp;Humidity;BMP_temperature;BMP_pressure;BME280_temperature;BME280_humidity;BME280_pressure;Samples;Min_cycle;Max_cycle;Signal;HPM_P1;HPM_P2
2021/11/16 00:03:18;;;;;;;18.30;15.57;;;;;;;7.92;62.29;102660.44;6281924;28;20219;-63
2021/11/16 00:06:40;;;;;;;18.17;16.23;;;;;;;8.16;61.81;102657.69;6285899;28;20204;-62
2021/11/16 00:10:01;;;;;;;16.83;15.13;;;;;;;8.16;61.17;102645.63;6285963;28;20215;-63
2021/11/16 00:13:24;;;;;;;17.40;15.60;;;;;;;7.97;62.25;102630.31;6284839;28;20223;-63
2021/11/16 00:16:45;;;;;;;16.70;14.93;;;;;;;8.05;61.79;102634.91;6286092;28;20628;-63
2021/11/16 00:20:11;;;;;;;16.13;14.40;;;;;;;8.02;61.86;102629.63;6282156;28;20272;-63
2021/11/16 00:23:36;;;;;;;20.30;15.93;;;;;;;7.90;61.96;102624.06;6278537;28;20235;-63
2021/11/16 00:26:57;;;;;;;20.53;16.47;;;;;;;7.80;62.27;102627.22;6286294;28;20196;-62
2021/11/16 00:30:19;;;;;;;18.50;15.33;;;;;;;7.63;63.04;102635.31;6266982;28;20249;-63
2021/11/16 00:33:40;;;;;;;19.97;16.73;;;;;;;7.14;64.66;102627.66;6283255;28;20231;-62
2021/11/16 00:37:02;;;;;;;19.13;16.60;;;;;;;7.33;63.92;102627.44;6282127;28;20226;-63
2021/11/16 00:40:22;;;;;;;21.63;17.90;;;;;;;7.19;64.03;102621.81;6283543;28;20258;-63
2021/11/16 00:43:44;;;;;;;18.03;15.87;;;;;;;7.27;64.43;102617.75;6282801;28;20227;-64
2021/11/16 00:47:07;;;;;;;19.53;17.23;;;;;;;6.99;64.87;102612.47;6283994;28;20199;-63
2021/11/16 00:50:28;;;;;;;20.47;17.70;;;;;;;6.89;65.51;102601.78;6285230;28;20615;-63
2021/11/16 00:53:49;;;;;;;19.67;16.87;;;;;;;6.87;65.43;102606.03;6283366;28;20227;-64
2021/11/16 00:57:10;;;;;;;20.67;17.53;;;;;;;7.00;64.99;102603.84;6284534;28;20641;-64
2021/11/16 01:00:32;;;;;;;24.47;19.17;;;;;;;7.12;64.89;102608.59;6282829;28;20211;-64
2021/11/16 01:03:55;;;;;;;21.37;18.53;;;;;;;7.20;64.79;102613.19;6276660;28;20685;-63
2021/11/16 01:07:17;;;;;;;22.70;18.30;;;;;;;7.52;64.17;102615.94;6281285;28;20199;-63
2021/11/16 01:10:38;;;;;;;20.97;17.77;;;;;;;7.08;64.70;102610.19;6272699;28;20215;-63
2021/11/16 01:13:59;;;;;;;22.97;18.67;;;;;;;7.03;64.86;102609.16;6273342;28;20231;-64
2021/11/16 01:17:21;;;;;;;19.73;17.17;;;;;;;7.52;63.77;102605.56;6277549;28;20211;-64
2021/11/16 01:20:44;;;;;;;20.70;17.70;;;;;;;7.73;62.95;102597.59;6267044;28;20498;-64
2021/11/16 01:24:07;;;;;;;23.60;18.30;;;;;;;7.79;63.06;102590.03;6282164;28;20223;-63
2021/11/16 01:27:33;;;;;;;24.10;20.00;;;;;;;7.76;62.77;102589.06;6285382;28;20290;-63
2021/11/16 01:30:57;;;;;;;22.80;16.87;;;;;;;7.67;63.56;102590.50;6283366;28;20227;-64
2021/11/16 01:34:24;;;;;;;19.60;16.73;;;;;;;7.83;62.81;102585.78;6281591;28;21050;-64
2021/11/16 01:37:46;;;;;;;23.70;19.50;;;;;;;7.43;63.64;102594.94;6284998;28;20308;-63
2021/11/16 01:41:09;;;;;;;21.67;18.60;;;;;;;6.88;65.87;102594.84;6285570;28;20274;-64
2021/11/16 01:44:30;;;;;;;22.90;20.27;;;;;;;7.00;65.46;102586.63;6281429;28;20513;-64
2021/11/16 01:47:51;;;;;;;22.50;18.60;;;;;;;7.58;64.43;102585.06;6289715;28;20235;-64
2021/11/16 01:51:12;;;;;;;21.93;19.13;;;;;;;7.70;63.84;102584.56;6287088;28;20749;-63
2021/11/16 01:54:35;;;;;;;22.77;18.83;;;;;;;7.87;63.14;102577.25;6289370;28;20223;-63
2021/11/16 01:57:56;;;;;;;25.97;21.30;;;;;;;7.75;63.69;102576.91;6289509;28;20259;-63
2021/11/16 02:01:17;;;;;;;21.47;18.63;;;;;;;8.05;62.90;102566.56;6289480;28;20451;-63
2021/11/16 02:04:38;;;;;;;24.57;20.00;;;;;;;7.72;63.22;102567.31;6283478;28;20251;-63
2021/11/16 02:07:59;;;;;;;23.13;19.10;;;;;;;7.59;63.91;102565.19;6289115;28;20270;-64
2021/11/16 02:11:22;;;;;;;26.37;20.50;;;;;;;7.63;63.62;102567.91;6291206;28;20215;-63
2021/11/16 02:14:43;;;;;;;19.93;17.20;;;;;;;7.57;63.95;102566.84;6289943;28;20507;-63
2021/11/16 02:18:06;;;;;;;22.07;18.03;;;;;;;7.56;63.91;102558.19;6289833;28;20719;-64
2021/11/16 02:21:28;;;;;;;21.70;18.87;;;;;;;7.73;63.39;102550.91;6287404;28;20207;-63
2021/11/16 02:24:49;;;;;;;27.37;22.03;;;;;;;7.51;63.30;102540.72;6288798;28;20235;-63
2021/11/16 02:28:10;;;;;;;23.60;19.53;;;;;;;7.36;64.23;102533.34;6286765;28;20231;-64
2021/11/16 02:31:32;;;;;;;23.70;19.40;;;;;;;7.02;64.92;102535.72;6288351;28;20541;-63
2021/11/16 02:34:53;;;;;;;19.70;17.30;;;;;;;7.40;64.18;102530.88;6283452;28;20223;-63
2021/11/16 02:38:16;;;;;;;24.83;19.80;;;;;;;7.25;64.26;102523.53;6285386;28;20235;-62
2021/11/16 02:41:40;;;;;;;23.67;21.10;;;;;;;7.53;64.26;102528.69;6284017;28;20195;-63
2021/11/16 02:45:01;;;;;;;24.10;20.17;;;;;;;7.50;63.66;102521.69;6282606;28;20725;-64
2021/11/16 02:48:22;;;;;;;24.37;19.73;;;;;;;7.73;63.45;102511.13;6273600;28;20230;-63
2021/11/16 02:51:43;;;;;;;25.17;20.63;;;;;;;7.35;64.13;102508.25;6288442;28;20226;-64
2021/11/16 02:55:07;;;;;;;27.07;22.00;;;;;;;7.69;63.92;102507.56;6280444;28;20693;-63
2021/11/16 02:58:29;;;;;;;23.67;18.90;;;;;;;7.37;64.32;102501.44;6288740;28;21202;-63
2021/11/16 03:01:50;;;;;;;26.90;21.73;;;;;;;7.42;64.39;102505.88;6284122;28;20195;-63
2021/11/16 03:05:11;;;;;;;24.67;21.03;;;;;;;7.10;64.60;102507.50;6280190;28;20227;-63
2021/11/16 03:08:32;;;;;;;25.37;19.63;;;;;;;7.36;64.67;102515.19;6283529;28;21669;-63
2021/11/16 03:11:54;;;;;;;24.33;20.30;;;;;;;7.19;64.35;102507.78;6281005;28;20208;-63
2021/11/16 03:15:15;;;;;;;22.30;19.10;;;;;;;7.01;65.16;102507.19;6280305;28;20258;-63
2021/11/16 03:18:36;;;;;;;25.87;19.87;;;;;;;6.30;67.52;102507.34;6283050;28;20317;-64
2021/11/16 03:21:59;;;;;;;27.63;23.00;;;;;;;6.70;66.63;102507.03;6263916;28;20267;-64
2021/11/16 03:25:22;;;;;;;28.73;23.20;;;;;;;6.86;66.23;102503.28;6275034;28;20501;-64
2021/11/16 03:28:46;;;;;;;26.50;22.67;;;;;;;7.10;65.60;102503.19;6274706;28;20239;-63
2021/11/16 03:32:09;;;;;;;26.17;20.40;;;;;;;7.22;65.15;102500.09;6283893;28;20208;-65
2021/11/16 03:35:30;;;;;;;29.93;23.07;;;;;;;7.38;64.71;102496.25;6277172;28;20239;-64
2021/11/16 03:38:54;;;;;;;27.60;21.10;;;;;;;7.63;64.63;102495.31;6278206;28;20234;-63
2021/11/16 03:42:16;;;;;;;32.23;24.13;;;;;;;7.72;63.65;102493.84;6281057;28;20187;-63
2021/11/16 03:45:39;;;;;;;26.43;21.03;;;;;;;7.77;63.96;102489.66;6268927;28;20235;-64
2021/11/16 03:49:00;;;;;;;27.97;21.97;;;;;;;7.58;64.50;102486.53;6278080;28;20620;-64
2021/11/16 03:52:22;;;;;;;29.70;23.13;;;;;;;7.67;64.04;102485.91;6281370;28;20211;-64
2021/11/16 03:55:44;;;;;;;31.10;24.07;;;;;;;7.64;64.70;102485.84;6281952;28;20310;-64
2021/11/16 03:59:06;;;;;;;28.40;23.77;;;;;;;7.66;64.42;102478.97;6276001;28;20227;-64
2021/11/16 04:02:29;;;;;;;30.17;23.33;;;;;;;7.80;64.14;102476.78;6279327;28;20192;-63
2021/11/16 04:05:50;;;;;;;29.80;24.27;;;;;;;7.38;66.17;102467.75;6278750;28;20546;-64
2021/11/16 04:09:11;;;;;;;31.90;25.90;;;;;;;7.37;65.78;102460.81;6281076;28;20703;-63
2021/11/16 04:12:32;;;;;;;28.93;23.97;;;;;;;7.10;65.42;102460.84;6275414;28;20211;-64
2021/11/16 04:15:54;;;;;;;29.80;26.23;;;;;;;7.23;65.64;102468.19;6279364;28;20219;-63
2021/11/16 04:19:17;;;;;;;28.77;23.90;;;;;;;7.47;64.81;102468.03;6278206;28;20636;-63
2021/11/16 04:22:38;;;;;;;29.93;23.47;;;;;;;7.51;65.15;102469.00;6280933;28;20200;-64
2021/11/16 04:25:59;;;;;;;26.43;22.10;;;;;;;7.69;64.29;102474.72;6281937;28;20282;-64
2021/11/16 04:29:20;;;;;;;32.93;25.73;;;;;;;7.73;63.46;102474.84;6282254;28;20745;-64
2021/11/16 04:32:42;;;;;;;27.27;24.23;;;;;;;7.52;63.73;102469.88;6285962;28;20207;-64
2021/11/16 04:36:05;;;;;;;28.77;24.37;;;;;;;7.41;63.96;102464.41;6280870;28;20199;-63
2021/11/16 04:39:26;;;;;;;23.23;19.20;;;;;;;7.44;63.49;102459.28;6278985;28;20255;-64
2021/11/16 04:42:47;;;;;;;23.30;20.73;;;;;;;7.44;62.94;102460.19;6278932;28;20188;-63
2021/11/16 04:46:11;;;;;;;23.60;19.53;;;;;;;7.23;63.48;102460.41;6280079;28;21167;-63
2021/11/16 04:49:35;;;;;;;19.73;17.67;;;;;;;7.45;62.25;102458.47;6281468;28;20231;-63
2021/11/16 04:53:12;;;;;;;25.43;18.30;;;;;;;7.44;62.21;102461.88;6279548;28;20239;-64
2021/11/16 05:03:51;;;;;;;24.90;20.17;;;;;;;7.16;62.53;102449.81;6276624;28;21642;-62
2021/11/16 05:07:16;;;;;;;22.03;19.37;;;;;;;7.34;61.75;102447.75;6282632;28;20187;-63
2021/11/16 05:10:39;;;;;;;23.37;19.10;;;;;;;7.50;61.74;102449.09;6282178;28;20219;-63
2021/11/16 05:14:00;;;;;;;23.20;18.80;;;;;;;7.54;61.71;102448.38;6283525;28;20323;-62
2021/11/16 05:17:22;;;;;;;22.20;18.03;;;;;;;7.00;62.47;102444.16;6284435;28;20203;-64
2021/11/16 05:20:43;;;;;;;21.10;17.27;;;;;;;6.87;63.41;102442.00;6284150;28;20219;-64
2021/11/16 05:24:05;;;;;;;20.27;17.00;;;;;;;7.19;62.70;102442.09;6285757;28;20610;-63
2021/11/16 05:27:27;;;;;;;20.67;18.53;;;;;;;7.37;61.87;102439.22;6285483;28;20196;-63
2021/11/16 05:30:49;;;;;;;22.57;18.93;;;;;;;7.18;62.57;102435.19;6281949;28;20215;-64
2021/11/16 05:34:10;;;;;;;23.37;18.70;;;;;;;7.32;62.00;102430.41;6256114;28;20718;-63
2021/11/16 05:37:31;;;;;;;18.97;15.90;;;;;;;7.49;61.74;102429.22;6283797;28;20681;-63
2021/11/16 05:40:52;;;;;;;23.83;20.73;;;;;;;7.01;62.77;102426.88;6284923;28;20480;-64
2021/11/16 05:44:14;;;;;;;19.43;16.70;;;;;;;7.32;62.40;102433.00;6284926;28;20227;-64
2021/11/16 05:47:38;;;;;;;24.47;18.20;;;;;;;7.46;61.65;102444.66;6284024;28;20881;-64
2021/11/16 05:50:59;;;;;;;21.07;18.83;;;;;;;7.59;61.52;102440.72;6284601;28;20207;-63
2021/11/16 05:54:27;;;;;;;24.03;18.63;;;;;;;7.47;61.49;102452.47;6277538;28;20228;-62
2021/11/16 05:57:50;;;;;;;25.67;20.63;;;;;;;7.63;61.12;102452.94;6281949;28;20196;-63
2021/11/16 06:01:12;;;;;;;23.67;19.60;;;;;;;7.95;60.23;102451.28;6277710;28;20216;-63
2021/11/16 06:04:33;;;;;;;23.30;19.57;;;;;;;7.85;60.27;102459.59;6279054;28;20231;-63
2021/11/16 06:07:54;;;;;;;22.47;18.50;;;;;;;7.88;60.20;102458.00;6290831;28;20239;-63
2021/11/16 06:11:17;;;;;;;25.97;20.10;;;;;;;7.45;60.90;102458.47;6279548;28;20488;-64
2021/11/16 06:14:38;;;;;;;20.90;18.27;;;;;;;7.78;60.31;102457.69;6280698;28;20793;-63
2021/11/16 06:18:02;;;;;;;21.90;17.37;;;;;;;8.06;59.40;102449.88;6269744;28;20228;-65
2021/11/16 06:21:24;;;;;;;21.77;19.17;;;;;;;8.04;59.78;102448.91;6282344;28;20192;-64
2021/11/16 06:24:45;;;;;;;23.10;19.87;;;;;;;8.15;59.05;102454.41;6281184;28;20602;-63
2021/11/16 06:28:06;;;;;;;24.10;19.47;;;;;;;7.96;59.50;102453.00;6286088;28;20239;-64
2021/11/16 06:31:29;;;;;;;23.33;19.70;;;;;;;7.76;60.23;102455.06;6277084;28;20195;-63
2021/11/16 06:34:51;;;;;;;31.27;19.53;;;;;;;7.74;60.18;102464.50;6278365;28;20228;-63
2021/11/16 06:38:12;;;;;;;22.90;19.67;;;;;;;7.75;60.44;102460.19;6281187;28;20231;-64
2021/11/16 06:41:33;;;;;;;24.60;21.63;;;;;;;7.52;61.08;102455.19;6280485;28;20234;-63
2021/11/16 06:44:54;;;;;;;25.10;17.83;;;;;;;7.77;60.82;102456.78;6275356;28;20250;-63
2021/11/16 06:48:15;;;;;;;23.70;18.57;;;;;;;7.82;60.01;102449.16;6283989;28;20227;-64
2021/11/16 06:51:39;;;;;;;28.50;22.77;;;;;;;7.80;60.39;102450.84;6277912;28;20195;-65
2021/11/16 06:55:00;;;;;;;28.57;21.17;;;;;;;7.36;61.29;102453.00;6285636;28;20267;-65
2021/11/16 06:58:22;;;;;;;22.10;19.70;;;;;;;7.71;60.78;102447.97;6281648;28;20553;-63
2021/11/16 07:01:43;;;;;;;29.00;20.33;;;;;;;7.95;60.39;102448.69;6287274;28;20237;-64
2021/11/16 07:05:10;;;;;;;24.07;20.70;;;;;;;8.02;59.96;102448.00;6281957;28;20258;-64
2021/11/16 07:08:36;;;;;;;23.67;20.17;;;;;;;8.01;60.18;102447.97;6284510;28;20231;-61
2021/11/16 07:11:57;;;;;;;25.63;19.33;;;;;;;8.11;61.32;102456.88;6283176;28;20207;-61
2021/11/16 07:15:21;;;;;;;22.40;18.57;;;;;;;7.82;60.31;102449.16;6284387;28;20224;-61
2021/11/16 07:18:50;;;;;;;22.80;19.93;;;;;;;8.03;62.12;102452.34;6278504;28;20322;-62
2021/11/16 07:22:14;;;;;;;22.03;19.47;;;;;;;7.71;61.70;102453.16;6274889;28;20596;-65
2021/11/16 07:25:36;;;;;;;25.53;20.53;;;;;;;7.67;60.85;102454.78;6272077;28;20797;-63
2021/11/16 07:28:57;;;;;;;23.27;19.70;;;;;;;7.58;61.94;102447.63;6285766;28;20228;-64
2021/11/16 07:32:21;;;;;;;25.27;21.47;;;;;;;7.80;61.53;102466.41;6284697;28;20640;-64
2021/11/16 07:35:43;;;;;;;26.87;21.97;;;;;;;7.95;59.95;102447.78;6284713;28;20246;-63
2021/11/16 07:39:06;;;;;;;23.10;20.53;;;;;;;7.90;60.16;102455.44;6288147;28;20222;-64
2021/11/16 07:42:33;;;;;;;26.70;21.97;;;;;;;7.83;60.94;102461.28;6284733;28;20495;-64
2021/11/16 07:45:55;;;;;;;30.67;23.53;;;;;;;7.75;60.81;102453.28;6288106;28;20478;-63
2021/11/16 07:49:16;;;;;;;26.73;21.87;;;;;;;7.76;61.27;102449.00;6286553;28;20227;-64
2021/11/16 07:52:38;;;;;;;27.60;22.10;;;;;;;7.91;60.80;102444.25;6285265;28;20524;-64
2021/11/16 07:56:02;;;;;;;27.90;21.70;;;;;;;7.82;60.87;102446.56;6289494;28;20199;-64
2021/11/16 07:59:25;;;;;;;24.23;20.67;;;;;;;7.62;60.84;102449.47;6287946;28;20227;-64
2021/11/16 08:02:49;;;;;;;25.47;20.30;;;;;;;7.67;60.73;102444.41;6276982;28;20199;-63
2021/11/16 08:06:16;;;;;;;26.40;21.90;;;;;;;7.52;60.86;102443.97;6281277;28;20377;-65
2021/11/16 08:09:47;;;;;;;27.00;22.07;;;;;;;7.60;60.89;102433.00;6286249;28;20231;-64
2021/11/16 08:13:15;;;;;;;24.13;20.20;;;;;;;7.80;61.86;102437.88;6278734;28;20223;-65
2021/11/16 08:16:48;;;;;;;26.10;20.07;;;;;;;8.92;73.22;102445.09;6272631;28;21540;-65
2021/11/16 08:20:12;;;;;;;27.50;23.57;;;;;;;8.47;65.99;102446.59;6281187;28;20223;-63
2021/11/16 08:23:32;;;;;;;30.77;24.07;;;;;;;8.82;64.80;102437.13;6285880;28;20711;-65
2021/11/16 08:26:54;;;;;;;27.97;24.97;;;;;;;8.93;63.64;102442.56;6284296;28;20183;-65
2021/11/16 08:30:19;;;;;;;28.90;24.10;;;;;;;8.76;59.96;102439.56;6280096;28;20235;-64
2021/11/16 08:33:43;;;;;;;27.67;24.67;;;;;;;8.62;58.70;102430.53;6274475;28;20220;-65
2021/11/16 08:37:07;;;;;;;27.83;22.70;;;;;;;8.26;59.72;102431.34;6277258;28;20757;-65
2021/11/16 08:40:32;;;;;;;27.00;21.30;;;;;;;7.82;60.85;102428.41;6280820;28;20227;-65
2021/11/16 08:44:06;;;;;;;30.60;24.53;;;;;;;7.90;60.86;102432.09;6283549;28;20227;-65
2021/11/16 08:47:30;;;;;;;26.47;22.50;;;;;;;6.88;63.82;102429.09;6278237;28;20187;-65
2021/11/16 08:50:56;;;;;;;30.40;23.60;;;;;;;7.42;62.56;102437.63;6273496;28;20231;-64
2021/11/16 08:54:25;;;;;;;29.43;23.97;;;;;;;7.75;62.04;102431.66;6277026;28;20258;-64
2021/11/16 08:57:49;;;;;;;29.23;22.50;;;;;;;7.66;62.07;102433.16;6281782;28;20333;-64
2021/11/16 09:01:10;;;;;;;29.30;24.40;;;;;;;7.82;61.87;102425.81;6277602;28;20636;-64
2021/11/16 09:04:36;;;;;;;30.53;25.57;;;;;;;7.76;61.72;102425.66;6274096;28;21054;-64
2021/11/16 09:07:59;;;;;;;34.10;26.37;;;;;;;7.62;62.28;102418.34;6273131;28;20513;-65
2021/11/16 09:11:22;;;;;;;30.57;23.70;;;;;;;7.78;62.21;102419.66;6283964;28;20195;-65
2021/11/16 09:14:53;;;;;;;30.60;25.43;;;;;;;7.97;61.82;102418.47;6282252;28;20514;-64
2021/11/16 09:18:17;;;;;;;32.90;24.77;;;;;;;8.12;61.15;102412.78;6278957;28;20321;-65
2021/11/16 09:21:40;;;;;;;31.03;24.07;;;;;;;8.31;60.65;102419.34;6279439;28;20211;-64
2021/11/16 09:25:04;;;;;;;35.73;26.67;;;;;;;8.24;61.44;102422.66;6284364;28;20222;-65
2021/11/16 09:28:39;;;;;;;32.17;28.33;;;;;;;8.15;61.39;102417.19;6283833;28;20223;-64
2021/11/16 09:32:02;;;;;;;33.27;26.97;;;;;;;8.01;61.69;102414.25;6283120;28;20195;-64
2021/11/16 09:35:23;;;;;;;34.27;27.30;;;;;;;7.35;63.89;102401.97;6279133;28;20231;-64
2021/11/16 09:38:49;;;;;;;40.13;29.10;;;;;;;7.17;64.69;102399.72;6280381;28;20219;-65
2021/11/16 09:42:13;;;;;;;39.33;31.33;;;;;;;6.64;66.71;102403.28;6284890;28;20439;-65
2021/11/16 09:45:36;;;;;;;40.63;29.07;;;;;;;6.90;66.29;102401.53;6260102;28;20227;-64
2021/11/16 09:48:59;;;;;;;36.67;29.27;;;;;;;6.88;66.94;102400.59;6283517;28;20231;-64
2021/11/16 09:52:22;;;;;;;34.93;27.53;;;;;;;6.99;66.57;102397.47;6288300;28;20350;-64
2021/11/16 09:55:43;;;;;;;35.93;28.70;;;;;;;6.44;68.18;102389.69;6280763;28;20224;-64
2021/11/16 09:59:06;;;;;;;37.00;29.93;;;;;;;7.00;66.72;102391.44;6283967;28;20222;-65
2021/11/16 10:02:30;;;;;;;40.50;29.40;;;;;;;6.70;67.62;102403.47;6283969;28;20200;-64
2021/11/16 10:06:18;;;;;;;39.93;30.13;;;;;;;6.99;66.90;102389.69;6288147;28;20231;-64
2021/11/16 10:09:41;;;;;;;36.03;26.83;;;;;;;7.42;65.67;102380.59;6286935;28;20231;-64
2021/11/16 10:13:07;;;;;;;40.17;31.17;;;;;;;6.72;68.07;102375.03;6283515;28;20605;-65
2021/11/16 10:16:29;;;;;;;43.43;32.77;;;;;;;7.46;66.11;102374.66;6289160;28;20223;-64
2021/11/16 10:19:50;;;;;;;33.00;27.17;;;;;;;7.07;66.60;102367.47;6290940;28;20223;-64
2021/11/16 10:23:13;;;;;;;38.10;27.70;;;;;;;6.83;67.96;102358.13;6285000;28;20235;-65
2021/11/16 10:26:35;;;;;;;35.80;29.50;;;;;;;6.74;68.87;102352.66;6287779;28;20203;-65
2021/11/16 10:30:10;;;;;;;38.77;28.07;;;;;;;6.76;68.47;102345.81;6285091;28;20223;-65
2021/11/16 10:33:34;;;;;;;41.77;28.97;;;;;;;7.03;68.13;102337.13;6283869;28;20223;-65
2021/11/16 10:37:05;;;;;;;35.83;27.50;;;;;;;7.29;68.50;102338.78;6277615;28;20462;-65
2021/11/16 10:40:28;;;;;;;42.63;30.93;;;;;;;7.81;68.62;102331.59;6277217;28;21701;-65
2021/11/16 10:43:54;;;;;;;38.03;26.97;;;;;;;8.00;66.16;102330.31;6289496;28;20215;-65
2021/11/16 10:47:19;;;;;;;40.87;28.97;;;;;;;7.81;65.61;102323.81;6285725;28;20200;-66
2021/11/16 10:50:45;;;;;;;42.97;30.30;;;;;;;8.05;65.38;102313.16;6283813;28;20223;-66
2021/11/16 10:54:09;;;;;;;39.87;29.53;;;;;;;7.78;65.94;102318.53;6283643;28;20223;-65
2021/11/16 10:57:51;;;;;;;42.53;30.47;;;;;;;8.15;64.77;102316.00;6285861;28;20581;-64
2021/11/16 11:01:14;;;;;;;37.40;29.60;;;;;;;7.89;65.56;102317.09;6282352;28;20577;-65
2021/11/16 11:04:41;;;;;;;43.90;29.10;;;;;;;7.81;65.74;102300.47;6290048;28;20302;-64
2021/11/16 11:08:04;;;;;;;40.20;30.23;;;;;;;7.62;66.44;102299.09;6286148;28;20616;-64
2021/11/16 11:11:27;;;;;;;40.70;30.37;;;;;;;7.74;66.15;102290.75;6284798;28;20282;-65
2021/11/16 11:14:54;;;;;;;41.67;31.87;;;;;;;7.78;65.80;102282.22;6283073;28;20227;-65
2021/11/16 11:18:31;;;;;;;39.97;29.93;;;;;;;7.72;66.55;102278.59;6285924;28;20276;-64
2021/11/16 11:21:57;;;;;;;41.70;29.70;;;;;;;7.57;67.22;102272.16;6284563;28;20206;-66
2021/11/16 11:25:36;;;;;;;41.63;33.20;;;;;;;7.50;67.42;102267.63;6285740;28;20227;-66
2021/11/16 11:32:44;;;;;;;43.00;32.13;;;;;;;7.09;69.47;102263.09;6272597;28;20405;-65
2021/11/16 11:36:18;;;;;;;41.57;30.50;;;;;;;7.55;68.52;102260.88;6272521;28;20216;-64
2021/11/16 11:39:39;;;;;;;37.70;28.60;;;;;;;7.00;69.30;102264.50;6281092;28;20287;-65
2021/11/16 11:43:04;;;;;;;39.87;29.00;;;;;;;7.27;68.52;102257.53;6282714;28;20223;-66
2021/11/16 11:46:47;;;;;;;40.10;27.00;;;;;;;6.81;69.99;102260.53;6279405;28;20195;-64
2021/11/16 11:50:29;;;;;;;34.07;25.50;;;;;;;6.68;70.93;102265.31;6277298;28;20231;-65
2021/11/16 11:53:50;;;;;;;37.90;26.83;;;;;;;7.03;69.79;102259.44;6284797;28;20223;-65
2021/11/16 11:57:13;;;;;;;35.30;26.93;;;;;;;7.37;68.67;102256.06;6265320;28;20200;-65
2021/11/16 12:00:36;;;;;;;38.70;26.50;;;;;;;7.62;67.78;102248.97;6255150;28;20330;-65
2021/11/16 12:03:58;;;;;;;36.03;26.87;;;;;;;7.82;67.06;102252.06;6274303;28;20258;-64
2021/11/16 12:07:19;;;;;;;34.40;25.43;;;;;;;7.65;66.88;102239.50;6282344;28;20565;-66
2021/11/16 12:10:44;;;;;;;36.87;26.83;;;;;;;7.12;69.04;102240.69;6277499;28;20204;-66
2021/11/16 12:14:14;;;;;;;34.30;25.37;;;;;;;7.01;69.48;102243.84;6284810;28;20586;-65
2021/11/16 12:17:47;;;;;;;34.13;25.53;;;;;;;7.13;69.34;102243.31;6286816;28;20497;-64
2021/11/16 12:21:27;;;;;;;34.80;24.87;;;;;;;6.60;71.01;102234.88;6281933;28;20203;-65
2021/11/16 12:24:49;;;;;;;32.87;25.20;;;;;;;6.15;72.72;102235.22;6278572;28;20231;-63
2021/11/16 12:28:27;;;;;;;36.57;27.00;;;;;;;6.41;71.91;102229.13;6284254;28;20235;-64
2021/11/16 12:31:50;;;;;;;39.60;26.33;;;;;;;6.75;71.25;102224.09;6278295;28;20191;-65
2021/11/16 12:35:18;;;;;;;36.03;26.03;;;;;;;7.33;69.32;102217.94;6280378;28;20250;-65
2021/11/16 12:38:41;;;;;;;30.77;23.20;;;;;;;7.66;68.09;102199.78;6286162;28;20258;-65
2021/11/16 12:42:09;;;;;;;33.50;24.00;;;;;;;7.36;68.74;102207.66;6274888;28;20211;-64
2021/11/16 12:45:38;;;;;;;34.27;24.73;;;;;;;7.15;69.49;102204.50;6280444;28;20226;-64
2021/11/16 12:49:01;;;;;;;36.13;26.77;;;;;;;7.60;67.89;102199.66;6277655;28;20640;-64
2021/11/16 12:52:25;;;;;;;35.93;28.50;;;;;;;7.16;69.17;102207.13;6275894;28;20407;-65
2021/11/16 12:55:53;;;;;;;36.20;25.37;;;;;;;7.12;69.43;102214.78;6283660;28;20224;-64
2021/11/16 12:59:16;;;;;;;31.93;21.67;;;;;;;6.47;71.25;102203.44;6284264;28;20593;-65
2021/11/16 13:02:48;;;;;;;31.00;22.03;;;;;;;6.51;71.25;102201.81;6270121;28;20203;-65
2021/11/16 13:06:12;;;;;;;27.33;19.93;;;;;;;6.82;71.95;102207.88;6276172;28;20293;-64
2021/11/16 13:09:46;;;;;;;27.43;19.00;;;;;;;7.07;69.77;102212.06;6274768;28;20326;-63
2021/11/16 13:13:18;;;;;;;27.47;19.90;;;;;;;7.00;70.33;102197.16;6274258;28;20226;-64
2021/11/16 13:16:40;;;;;;;27.87;20.73;;;;;;;6.90;69.57;102198.63;6271830;28;20661;-64
2021/11/16 13:20:01;;;;;;;24.90;18.50;;;;;;;6.29;71.33;102198.59;6273394;28;20234;-65
2021/11/16 13:23:25;;;;;;;25.67;19.40;;;;;;;6.56;71.29;102192.50;6269171;28;20227;-65
2021/11/16 13:26:49;;;;;;;25.07;19.47;;;;;;;6.39;70.85;102181.63;6270763;28;20533;-65
2021/11/16 13:30:20;;;;;;;27.60;19.83;;;;;;;6.66;70.10;102185.88;6271648;28;20242;-65
2021/11/16 13:33:46;;;;;;;27.70;18.53;;;;;;;6.58;70.89;102179.59;6269947;28;20832;-64
2021/11/16 13:37:22;;;;;;;26.20;20.53;;;;;;;6.49;71.55;102168.16;6276290;28;20219;-65
2021/11/16 13:40:43;;;;;;;24.70;19.00;;;;;;;6.69;71.37;102168.72;6273944;28;20234;-63
2021/11/16 13:44:14;;;;;;;24.63;18.57;;;;;;;6.60;70.72;102157.22;6277555;28;20239;-64
2021/11/16 13:47:41;;;;;;;25.37;19.97;;;;;;;6.40;71.97;102162.69;6278995;28;20195;-63
2021/11/16 13:51:02;;;;;;;27.50;20.23;;;;;;;6.65;71.07;102160.78;6283336;28;20489;-63
2021/11/16 13:54:23;;;;;;;27.23;20.10;;;;;;;6.57;72.06;102158.03;6285099;28;20231;-64
2021/11/16 13:57:49;;;;;;;28.23;21.40;;;;;;;7.03;70.11;102156.69;6286107;28;20220;-64
2021/11/16 14:01:13;;;;;;;27.77;22.00;;;;;;;6.42;72.38;102157.56;6287983;28;20208;-64
2021/11/16 14:04:35;;;;;;;28.40;21.77;;;;;;;6.84;70.83;102149.25;6286749;28;20231;-65
2021/11/16 14:07:58;;;;;;;26.67;19.27;;;;;;;6.84;70.63;102142.38;6285253;28;20227;-64
2021/11/16 14:11:19;;;;;;;26.43;20.20;;;;;;;6.83;70.77;102145.78;6287239;28;20204;-65
2021/11/16 14:14:40;;;;;;;29.93;22.13;;;;;;;6.45;72.13;102139.53;6289144;28;20258;-64
2021/11/16 14:18:07;;;;;;;29.80;19.43;;;;;;;6.23;72.50;102141.47;6287832;28;20231;-63
2021/11/16 14:21:28;;;;;;;28.27;21.40;;;;;;;5.96;73.49;102136.34;6285320;28;20204;-64
2021/11/16 14:24:52;;;;;;;29.43;20.73;;;;;;;6.13;72.70;102136.88;6289774;28;20333;-64
2021/11/16 14:28:13;;;;;;;32.33;22.10;;;;;;;5.85;74.06;102135.09;6288152;28;20230;-64
2021/11/16 14:31:36;;;;;;;26.70;21.73;;;;;;;6.03;73.62;102127.06;6282980;28;20203;-64
2021/11/16 14:35:00;;;;;;;27.10;21.70;;;;;;;6.19;74.11;102123.25;6282123;28;20227;-64
2021/11/16 14:38:28;;;;;;;28.20;21.90;;;;;;;6.60;72.31;102113.22;6281871;28;20227;-63
2021/11/16 14:41:51;;;;;;;27.57;19.53;;;;;;;6.42;72.53;102111.84;6288574;28;20206;-64
2021/11/16 14:45:13;;;;;;;24.10;18.63;;;;;;;6.48;72.62;102109.44;6282836;28;20223;-63
2021/11/16 14:48:36;;;;;;;23.60;20.43;;;;;;;6.84;71.13;102100.94;6288936;28;20811;-63
2021/11/16 14:51:58;;;;;;;28.30;22.47;;;;;;;6.81;70.69;102097.41;6285588;28;20203;-65
2021/11/16 14:55:19;;;;;;;25.40;19.23;;;;;;;6.96;70.47;102086.53;6287141;28;20227;-65
2021/11/16 14:58:41;;;;;;;26.37;20.30;;;;;;;6.87;70.83;102085.47;6279046;28;20330;-64
2021/11/16 15:02:07;;;;;;;25.70;19.20;;;;;;;6.20;73.27;102083.59;6280463;28;20203;-65
2021/11/16 15:05:30;;;;;;;20.73;16.43;;;;;;;6.77;71.55;102080.91;6282947;28;20250;-64
2021/11/16 15:08:53;;;;;;;25.17;19.83;;;;;;;7.17;69.69;102076.72;6281624;28;20228;-63
2021/11/16 15:12:16;;;;;;;25.37;19.70;;;;;;;6.28;71.57;102085.59;6282980;28;20576;-65
2021/11/16 15:15:39;;;;;;;27.50;22.83;;;;;;;6.02;73.59;102089.97;6271903;28;20242;-64
2021/11/16 15:19:11;;;;;;;29.77;23.63;;;;;;;5.89;74.39;102085.25;6282641;28;20597;-64
2021/11/16 15:22:35;;;;;;;25.93;18.87;;;;;;;5.55;75.39;102091.94;6280958;28;20530;-65
2021/11/16 15:26:01;;;;;;;27.50;20.70;;;;;;;6.04;73.85;102087.44;6281334;28;20211;-64
2021/11/16 15:29:22;;;;;;;29.30;20.43;;;;;;;6.13;73.47;102092.91;6281893;28;20231;-64
2021/11/16 15:33:03;;;;;;;26.90;20.00;;;;;;;6.04;73.68;102088.31;6273391;28;20195;-64
2021/11/16 15:36:27;;;;;;;27.13;20.20;;;;;;;6.18;73.68;102082.69;6277086;28;20215;-65
2021/11/16 15:40:04;;;;;;;27.80;20.40;;;;;;;6.26;73.09;102084.69;6274837;28;20226;-65
2021/11/16 15:43:49;;;;;;;24.43;19.03;;;;;;;6.30;72.87;102081.34;6279251;28;20226;-64
2021/11/16 15:47:20;;;;;;;29.73;21.60;;;;;;;6.07;73.48;102078.06;6275238;28;20195;-64
2021/11/16 15:50:59;;;;;;;28.77;21.87;;;;;;;6.01;74.09;102071.81;6281799;28;20499;-64